createdAt,value
2024-01-26T00:01:18.519Z,102476.78
2024-01-26T00:03:45.783Z,102469.72
2024-01-26T00:06:13.720Z,102464.31
2024-01-26T00:08:40.692Z,102453.91
2024-01-26T00:11:09.149Z,102459.88
2024-01-26T00:13:36.131Z,102455.84
2024-01-26T00:16:03.938Z,102461.59
2024-01-26T00:18:31.518Z,102446.69
2024-01-26T00:21:01.938Z,102453.66
2024-01-26T00:23:29.781Z,102459.13
2024-01-26T00:25:59.053Z,102449.28
2024-01-26T00:28:27.322Z,102443.13
2024-01-26T00:30:54.971Z,102437.16
2024-01-26T00:33:22.136Z,102426.56
2024-01-26T00:35:51.364Z,102429.19
2024-01-26T00:38:18.721Z,102414.59
2024-01-26T00:40:45.826Z,102424.84
2024-01-26T00:43:13.373Z,102432.19
2024-01-26T00:45:40.689Z,102440.81
2024-01-26T00:48:08.660Z,102439.84
2024-01-26T00:50:36.288Z,102443.34
2024-01-26T00:53:03.840Z,102448.72
2024-01-26T00:55:31.717Z,102443.31
2024-01-26T00:57:59.140Z,102447.72
2024-01-26T01:00:26.227Z,102442.44
2024-01-26T01:02:54.711Z,102446.81
2024-01-26T01:05:22.213Z,102441.41
2024-01-26T01:07:49.372Z,102426.66
2024-01-26T01:10:17.314Z,102439.56
2024-01-26T01:12:44.925Z,102418.03
2024-01-26T01:15:16.494Z,102431.75
2024-01-26T01:17:44.712Z,102420.22
2024-01-26T01:20:13.860Z,102412.22
2024-01-26T01:22:45.237Z,102406.00
2024-01-26T01:25:16.023Z,102399.97
2024-01-26T01:27:43.192Z,102398.81
2024-01-26T01:30:14.520Z,102402.44
2024-01-26T01:32:43.140Z,102378.63
2024-01-26T01:35:09.975Z,102370.56
2024-01-26T01:37:36.695Z,102370.50
2024-01-26T01:40:04.443Z,102368.84
2024-01-26T01:42:32.531Z,102360.72
2024-01-26T01:44:59.617Z,102352.91
2024-01-26T01:47:28.149Z,102338.72
2024-01-26T01:49:55.260Z,102341.19
2024-01-26T01:52:24.132Z,102348.47
2024-01-26T01:54:52.685Z,102364.28
2024-01-26T01:57:22.645Z,102345.63
2024-01-26T01:59:50.684Z,102345.81
2024-01-26T02:02:17.951Z,102345.69
2024-01-26T02:04:44.840Z,102348.09
2024-01-26T02:07:11.606Z,102352.66
2024-01-26T02:09:38.298Z,102339.47
2024-01-26T02:12:05.281Z,102334.38
2024-01-26T02:14:32.028Z,102344.84
2024-01-26T02:17:03.322Z,102329.81
2024-01-26T02:19:34.127Z,102320.88
2024-01-26T02:22:02.015Z,102312.88
2024-01-26T02:24:29.081Z,102286.59
2024-01-26T02:26:57.528Z,102282.97
2024-01-26T02:29:24.669Z,102282.97
2024-01-26T02:31:52.461Z,102284.81
2024-01-26T02:34:19.716Z,102286.19
2024-01-26T02:36:47.728Z,102278.47
2024-01-26T02:39:15.125Z,102268.72
2024-01-26T02:41:43.965Z,102267.66
2024-01-26T02:44:11.395Z,102264.22
2024-01-26T02:46:39.209Z,102253.50
2024-01-26T02:49:07.605Z,102236.81
2024-01-26T02:51:34.945Z,102249.53
2024-01-26T02:54:06.486Z,102233.97
2024-01-26T02:56:34.378Z,102237.81
2024-01-26T02:59:03.077Z,102222.72
2024-01-26T03:01:30.775Z,102215.66
2024-01-26T03:04:00.617Z,102214.91
2024-01-26T03:06:29.505Z,102204.78
2024-01-26T03:08:56.924Z,102212.94
2024-01-26T03:11:36.334Z,102213.53
2024-01-26T03:14:03.252Z,102195.06
2024-01-26T03:16:31.749Z,102197.69
2024-01-26T03:18:58.722Z,102185.25
2024-01-26T03:21:26.904Z,102187.56
2024-01-26T03:23:54.364Z,102170.22
2024-01-26T03:26:24.387Z,102177.25
2024-01-26T03:28:51.414Z,102172.28
2024-01-26T03:31:20.104Z,102185.53
2024-01-26T03:33:47.522Z,102163.41
2024-01-26T03:36:16.631Z,102163.09
2024-01-26T03:38:43.711Z,102158.44
2024-01-26T03:41:12.693Z,102145.47
2024-01-26T03:43:40.230Z,102153.84
2024-01-26T03:46:08.052Z,102154.94
2024-01-26T03:48:35.265Z,102155.78
2024-01-26T03:51:04.308Z,102152.94
2024-01-26T03:53:31.527Z,102136.38
2024-01-26T03:55:59.553Z,102138.72
2024-01-26T03:58:26.716Z,102121.97
2024-01-26T04:00:54.514Z,102132.28
2024-01-26T04:03:22.116Z,102119.72
2024-01-26T04:05:53.335Z,102120.44
2024-01-26T04:08:20.587Z,102130.97
2024-01-26T04:10:48.142Z,102119.16
2024-01-26T04:13:18.019Z,102109.84
2024-01-26T04:15:46.432Z,102113.22
2024-01-26T04:18:14.187Z,102094.66
2024-01-26T04:20:42.053Z,102086.50
2024-01-26T04:23:09.081Z,102079.09
2024-01-26T04:25:35.880Z,102074.59
2024-01-26T04:28:03.035Z,102063.25
2024-01-26T04:30:31.053Z,102060.69
2024-01-26T04:32:58.213Z,102064.19
2024-01-26T04:35:25.626Z,102071.22
2024-01-26T04:37:53.461Z,102064.84
2024-01-26T04:40:20.670Z,102063.91
2024-01-26T04:42:47.853Z,102033.03
2024-01-26T04:45:15.494Z,102039.88
2024-01-26T04:47:44.391Z,102033.66
2024-01-26T04:50:12.019Z,102036.16
2024-01-26T04:52:44.729Z,102030.94
2024-01-26T04:55:14.840Z,102022.97
2024-01-26T04:57:41.785Z,102007.28
2024-01-26T05:00:09.254Z,102028.13
2024-01-26T05:02:36.301Z,102017.53
2024-01-26T05:05:03.040Z,102015.88
2024-01-26T05:07:30.291Z,102012.22
2024-01-26T05:09:57.550Z,102014.72
2024-01-26T05:12:24.412Z,101997.16
2024-01-26T05:14:51.676Z,102001.44
2024-01-26T05:17:18.668Z,101995.28
2024-01-26T05:19:45.634Z,101988.28
2024-01-26T05:22:15.612Z,101977.66
2024-01-26T05:24:42.301Z,101975.09
2024-01-26T05:27:11.361Z,101978.59
2024-01-26T05:29:39.056Z,101971.41
2024-01-26T05:32:07.735Z,101968.84
2024-01-26T05:34:35.133Z,101955.75
2024-01-26T05:37:04.620Z,101959.03
2024-01-26T05:39:34.739Z,101941.69
2024-01-26T05:42:02.548Z,101940.59
2024-01-26T05:44:29.601Z,101936.41
2024-01-26T05:46:57.165Z,101938.81
2024-01-26T05:49:28.112Z,101947.06
2024-01-26T05:51:59.256Z,101934.84
2024-01-26T05:54:26.141Z,101918.38
2024-01-26T05:56:53.016Z,101935.63
2024-01-26T05:59:19.766Z,101941.16
2024-01-26T06:01:51.326Z,101942.00
2024-01-26T06:04:21.709Z,101933.28
2024-01-26T06:06:49.707Z,101948.94
2024-01-26T06:09:17.041Z,101936.00
2024-01-26T06:11:47.653Z,101930.53
2024-01-26T06:14:15.159Z,101948.09
2024-01-26T06:16:44.397Z,101938.50
2024-01-26T06:19:12.108Z,101940.38
2024-01-26T06:21:39.980Z,101927.88
2024-01-26T06:24:07.447Z,101942.31
2024-01-26T06:26:36.490Z,101930.63
2024-01-26T06:29:04.732Z,101925.69
2024-01-26T06:31:33.057Z,101938.72
2024-01-26T06:34:00.148Z,101921.19
2024-01-26T06:36:28.270Z,101921.97
2024-01-26T06:38:55.188Z,101946.75
2024-01-26T06:41:22.772Z,101930.06
2024-01-26T06:43:52.863Z,101915.88
2024-01-26T06:46:23.561Z,101914.94
2024-01-26T06:48:52.226Z,101908.06
2024-01-26T06:51:22.463Z,101912.44
2024-01-26T06:53:50.429Z,101908.69
2024-01-26T06:56:21.065Z,101914.16
2024-01-26T06:58:48.331Z,101920.53
2024-01-26T07:01:17.115Z,101921.97
2024-01-26T07:03:44.334Z,101912.44
2024-01-26T07:06:12.077Z,101902.78
2024-01-26T07:08:41.735Z,101915.31
2024-01-26T07:11:11.382Z,101921.19
2024-01-26T07:13:38.649Z,101925.53
2024-01-26T07:16:09.942Z,101921.03
2024-01-26T07:18:37.988Z,101912.44
2024-01-26T07:21:12.268Z,101914.84
2024-01-26T07:23:52.261Z,101932.09
2024-01-26T07:26:21.145Z,101940.13
2024-01-26T07:28:51.669Z,101941.78
2024-01-26T07:31:20.647Z,101941.63
2024-01-26T07:33:47.712Z,101942.09
2024-01-26T07:36:15.514Z,101950.34
2024-01-26T07:38:42.916Z,101941.94
2024-01-26T07:41:10.063Z,101934.84
2024-01-26T07:43:37.071Z,101927.81
2024-01-26T07:46:05.064Z,101928.22
2024-01-26T07:48:32.184Z,101933.28
2024-01-26T07:50:59.042Z,101927.75
2024-01-26T07:53:26.995Z,101938.34
2024-01-26T07:55:54.180Z,101939.22
2024-01-26T07:58:22.755Z,101924.31
2024-01-26T08:00:50.583Z,101934.69
2024-01-26T08:03:17.773Z,101947.94
2024-01-26T08:05:45.408Z,101931.00
2024-01-26T08:08:12.841Z,101943.81
2024-01-26T08:10:40.413Z,101937.66
2024-01-26T08:13:07.493Z,101955.16
2024-01-26T08:15:37.419Z,101943.09
2024-01-26T08:18:05.038Z,101941.31
2024-01-26T08:20:33.576Z,101967.69
2024-01-26T08:23:02.630Z,101971.34
2024-01-26T08:25:29.595Z,101954.09
2024-01-26T08:27:56.734Z,101960.25
2024-01-26T08:30:24.761Z,101950.75
2024-01-26T08:32:53.237Z,101952.22
2024-01-26T08:35:20.331Z,101968.66
2024-01-26T08:37:47.291Z,101979.28
2024-01-26T08:40:15.146Z,101974.19
2024-01-26T08:42:44.106Z,101974.00
2024-01-26T08:45:11.574Z,101996.72
2024-01-26T08:47:39.391Z,102009.25
2024-01-26T08:50:06.890Z,102009.84
2024-01-26T08:52:35.598Z,102027.00
2024-01-26T08:55:02.915Z,102065.47
2024-01-26T08:57:29.822Z,102071.06
2024-01-26T08:59:56.652Z,102081.03
2024-01-26T09:02:23.762Z,102083.06
2024-01-26T09:04:50.415Z,102097.38
2024-01-26T09:07:19.396Z,102101.06
2024-01-26T09:09:46.053Z,102112.75
2024-01-26T09:12:12.724Z,102107.34
2024-01-26T09:14:39.529Z,102122.94
2024-01-26T09:17:09.177Z,102129.13
2024-01-26T09:19:36.266Z,102146.84
2024-01-26T09:22:08.607Z,102164.34
2024-01-26T09:24:37.564Z,102190.38
2024-01-26T09:27:08.168Z,102212.31
2024-01-26T09:29:36.282Z,102205.78
2024-01-26T09:32:09.241Z,102202.50
2024-01-26T09:34:36.997Z,102218.13
2024-01-26T09:37:16.422Z,102195.59
2024-01-26T09:39:49.527Z,102202.13
2024-01-26T09:42:20.768Z,102201.25
2024-01-26T09:44:50.702Z,102216.09
2024-01-26T09:47:18.279Z,102226.72
2024-01-26T09:49:56.248Z,102218.84
2024-01-26T09:52:27.730Z,102252.16
2024-01-26T09:54:56.108Z,102234.84
2024-01-26T09:57:23.990Z,102229.06
2024-01-26T09:59:54.934Z,102249.97
2024-01-26T10:02:23.522Z,102254.03
2024-01-26T10:04:50.809Z,102278.78
2024-01-26T10:07:17.745Z,102273.50
2024-01-26T10:09:45.304Z,102285.84
2024-01-26T10:12:12.721Z,102321.63
2024-01-26T10:14:39.620Z,102318.44
2024-01-26T10:17:06.877Z,102311.38
2024-01-26T10:19:36.042Z,102326.38
2024-01-26T10:22:03.723Z,102329.16
2024-01-26T10:24:31.047Z,102359.84
2024-01-26T10:26:58.006Z,102363.28
2024-01-26T10:29:25.336Z,102381.22
2024-01-26T10:31:54.024Z,102389.19
2024-01-26T10:34:25.935Z,102396.13
2024-01-26T10:37:03.192Z,102384.03
2024-01-26T10:39:32.868Z,102396.53
2024-01-26T10:42:05.641Z,102407.22
2024-01-26T10:44:36.081Z,102429.75
2024-01-26T10:47:05.419Z,102433.41
2024-01-26T10:49:34.811Z,102433.59
2024-01-26T10:52:03.547Z,102437.78
2024-01-26T10:54:30.342Z,102440.66
2024-01-26T10:56:57.468Z,102481.28
2024-01-26T10:59:24.398Z,102454.75
2024-01-26T11:01:53.351Z,102470.38
2024-01-26T11:04:21.746Z,102479.28
2024-01-26T11:06:49.537Z,102484.78
2024-01-26T11:09:19.196Z,102502.19
2024-01-26T11:11:53.541Z,102498.59
2024-01-26T11:14:29.535Z,102502.50
2024-01-26T11:17:09.516Z,102522.66
2024-01-26T11:19:38.951Z,102510.59
2024-01-26T11:22:08.333Z,102520.38
2024-01-26T11:24:36.193Z,102530.94
2024-01-26T11:27:04.901Z,102552.09
2024-01-26T11:29:36.599Z,102549.56
2024-01-26T11:32:19.859Z,102558.41
2024-01-26T11:35:04.067Z,102567.13
2024-01-26T11:37:31.751Z,102584.81
2024-01-26T11:39:59.982Z,102573.22
2024-01-26T11:42:28.779Z,102585.69
2024-01-26T11:45:10.297Z,102589.34
2024-01-26T11:47:41.345Z,102588.41
2024-01-26T11:50:11.656Z,102623.25
2024-01-26T11:52:39.504Z,102617.31
2024-01-26T11:55:07.576Z,102626.97
2024-01-26T11:57:34.813Z,102643.78
2024-01-26T12:00:02.175Z,102651.63
2024-01-26T12:02:29.274Z,102664.88
2024-01-26T12:04:56.024Z,102653.44
2024-01-26T12:07:23.608Z,102687.53
2024-01-26T12:09:50.812Z,102682.13
2024-01-26T12:12:23.804Z,102686.56
2024-01-26T12:14:50.808Z,102688.16
2024-01-26T12:17:18.232Z,102710.22
2024-01-26T12:19:45.664Z,102707.72
2024-01-26T12:22:12.787Z,102724.41
2024-01-26T12:24:40.944Z,102708.72
2024-01-26T12:27:09.002Z,102740.44
2024-01-26T12:29:36.390Z,102744.84
2024-01-26T12:32:06.012Z,102741.38
2024-01-26T12:34:37.321Z,102735.31
2024-01-26T12:37:08.271Z,102761.66
2024-01-26T12:39:34.951Z,102755.56
2024-01-26T12:42:01.742Z,102746.81
2024-01-26T12:44:33.391Z,102763.47
2024-01-26T12:47:01.357Z,102766.22
2024-01-26T12:49:28.533Z,102765.34
2024-01-26T12:51:55.879Z,102769.63
2024-01-26T12:54:22.855Z,102772.44
2024-01-26T12:56:50.357Z,102775.09
2024-01-26T12:59:18.501Z,102775.19
2024-01-26T13:01:45.610Z,102777.06
2024-01-26T13:04:12.529Z,102784.94
2024-01-26T13:06:43.596Z,102790.34
2024-01-26T13:09:12.320Z,102797.31
2024-01-26T13:11:40.978Z,102797.13
2024-01-26T13:14:08.366Z,102795.56
2024-01-26T13:16:36.744Z,102814.16
2024-01-26T13:19:04.125Z,102812.41
2024-01-26T13:21:31.646Z,102822.06
2024-01-26T13:23:59.448Z,102823.78
2024-01-26T13:26:27.058Z,102830.84
2024-01-26T13:28:55.211Z,102835.31
2024-01-26T13:31:22.241Z,102833.47
2024-01-26T13:33:49.180Z,102846.69
2024-01-26T13:36:16.842Z,102863.47
2024-01-26T13:38:43.710Z,102856.31
2024-01-26T13:41:11.224Z,102858.13
2024-01-26T13:43:38.300Z,102865.19
2024-01-26T13:46:05.303Z,102879.09
2024-01-26T13:48:32.561Z,102886.28
2024-01-26T13:51:01.323Z,102879.16
2024-01-26T13:53:28.663Z,102898.59
2024-01-26T13:55:55.812Z,102914.31
2024-01-26T13:58:22.609Z,102908.28
2024-01-26T14:00:50.169Z,102920.53
2024-01-26T14:03:17.052Z,102933.69
2024-01-26T14:05:46.036Z,102935.44
2024-01-26T14:08:13.267Z,102946.00
2024-01-26T14:10:40.866Z,102944.31
2024-01-26T14:13:08.857Z,102955.84
2024-01-26T14:15:35.918Z,102961.91
2024-01-26T14:18:02.792Z,102969.94
2024-01-26T14:20:30.017Z,102974.31
2024-01-26T14:22:57.008Z,102981.38
2024-01-26T14:25:25.573Z,102984.25
2024-01-26T14:27:53.014Z,102979.88
2024-01-26T14:30:25.114Z,102989.63
2024-01-26T14:32:53.770Z,102996.53
2024-01-26T14:35:22.852Z,103000.22
2024-01-26T14:37:49.767Z,103009.84
2024-01-26T14:40:18.651Z,103011.75
2024-01-26T14:42:47.237Z,103018.78
2024-01-26T14:45:14.709Z,103017.94
2024-01-26T14:47:42.309Z,103035.44
2024-01-26T14:50:11.007Z,103045.19
2024-01-26T14:52:40.179Z,103047.06
2024-01-26T14:55:15.348Z,103052.34
2024-01-26T14:57:45.163Z,103061.13
2024-01-26T15:00:14.422Z,103066.34
2024-01-26T15:02:41.427Z,103067.41
2024-01-26T15:05:09.545Z,103085.06
2024-01-26T15:07:39.834Z,103095.59
2024-01-26T15:10:09.295Z,103100.91
2024-01-26T15:12:36.845Z,103117.59
2024-01-26T15:15:04.251Z,103116.63
2024-01-26T15:17:31.172Z,103111.47
2024-01-26T15:20:00.580Z,103118.47
2024-01-26T15:22:27.854Z,103121.19
2024-01-26T15:24:57.690Z,103119.44
2024-01-26T15:27:26.170Z,103121.22
2024-01-26T15:29:52.867Z,103121.25
2024-01-26T15:32:20.480Z,103123.97
2024-01-26T15:34:47.148Z,103130.06
2024-01-26T15:37:16.124Z,103132.63
2024-01-26T15:39:43.410Z,103143.19
2024-01-26T15:42:10.358Z,103146.91
2024-01-26T15:44:37.859Z,103138.19
2024-01-26T15:47:05.584Z,103146.97
2024-01-26T15:49:32.798Z,103151.38
2024-01-26T15:52:35.099Z,103161.88
2024-01-26T15:55:00.826Z,103158.44
2024-01-26T15:57:28.696Z,103173.31
2024-01-26T15:59:58.826Z,103162.06
2024-01-26T16:02:44.576Z,103174.28
2024-01-26T16:05:12.019Z,103183.09
2024-01-26T16:07:39.119Z,103185.84
2024-01-26T16:10:07.054Z,103197.25
2024-01-26T16:12:37.170Z,103193.72
2024-01-26T16:15:06.286Z,103205.19
2024-01-26T16:17:33.021Z,103208.75
2024-01-26T16:19:59.757Z,103206.16
2024-01-26T16:22:27.089Z,103215.84
2024-01-26T16:24:53.718Z,103220.25
2024-01-26T16:27:20.625Z,103226.44
2024-01-26T16:29:47.795Z,103231.69
2024-01-26T16:32:15.581Z,103230.81
2024-01-26T16:34:42.230Z,103236.09
2024-01-26T16:37:09.941Z,103245.78
2024-01-26T16:39:38.007Z,103248.44
2024-01-26T16:42:06.554Z,103250.16
2024-01-26T16:44:36.644Z,103232.72
2024-01-26T16:47:03.973Z,103252.88
2024-01-26T16:49:31.140Z,103252.06
2024-01-26T16:52:03.035Z,103273.94
2024-01-26T16:54:33.912Z,103271.34
2024-01-26T16:57:01.071Z,103269.59
2024-01-26T16:59:28.016Z,103281.84
2024-01-26T17:01:56.446Z,103285.38
2024-01-26T17:04:23.826Z,103288.06
2024-01-26T17:06:50.852Z,103287.19
2024-01-26T17:09:18.861Z,103295.94
2024-01-26T17:11:46.099Z,103296.84
2024-01-26T17:14:14.400Z,103311.72
2024-01-26T17:16:41.524Z,103310.88
2024-01-26T17:19:08.356Z,103303.84
2024-01-26T17:21:36.675Z,103312.66
2024-01-26T17:24:03.909Z,103303.88
2024-01-26T17:26:31.306Z,103313.50
2024-01-26T17:28:58.323Z,103324.03
2024-01-26T17:31:27.092Z,103333.72
2024-01-26T17:33:56.184Z,103323.16
2024-01-26T17:36:23.425Z,103330.19
2024-01-26T17:38:50.653Z,103332.81
2024-01-26T17:41:17.804Z,103338.06
2024-01-26T17:43:46.036Z,103342.47
2024-01-26T17:46:15.187Z,103344.28
2024-01-26T17:48:42.169Z,103351.28
2024-01-26T17:51:09.260Z,103352.16
2024-01-26T17:53:35.947Z,103361.78
2024-01-26T17:56:07.245Z,103368.84
2024-01-26T17:58:33.975Z,103366.22
2024-01-26T18:01:01.491Z,103370.59
2024-01-26T18:03:28.649Z,103368.00
2024-01-26T18:05:55.898Z,103380.28
2024-01-26T18:08:22.800Z,103382.00
2024-01-26T18:10:49.641Z,103389.03
2024-01-26T18:13:17.769Z,103385.56
2024-01-26T18:15:44.859Z,103405.72
2024-01-26T18:18:13.809Z,103403.97
2024-01-26T18:20:41.229Z,103402.22
2024-01-26T18:23:08.133Z,103403.97
2024-01-26T18:25:35.048Z,103410.09
2024-01-26T18:28:01.987Z,103402.22
2024-01-26T18:30:30.248Z,103405.75
2024-01-26T18:32:57.460Z,103415.41
2024-01-26T18:35:24.328Z,103417.16
2024-01-26T18:37:51.065Z,103411.91
2024-01-26T18:40:18.926Z,103418.94
2024-01-26T18:42:47.192Z,103425.97
2024-01-26T18:45:14.352Z,103428.56
2024-01-26T18:47:41.363Z,103439.06
2024-01-26T18:50:08.596Z,103440.84
2024-01-26T18:52:35.588Z,103438.19
2024-01-26T18:55:02.540Z,103444.38
2024-01-26T18:57:29.800Z,103447.03
2024-01-26T18:59:58.197Z,103444.41
2024-01-26T19:02:25.203Z,103455.78
2024-01-26T19:04:53.154Z,103459.28
2024-01-26T19:07:20.591Z,103458.41
2024-01-26T19:09:47.258Z,103463.66
2024-01-26T19:12:14.889Z,103462.78
2024-01-26T19:14:42.312Z,103470.69
2024-01-26T19:17:10.806Z,103472.44
2024-01-26T19:19:39.881Z,103485.59
2024-01-26T19:22:07.005Z,103472.44
2024-01-26T19:24:34.044Z,103482.09
2024-01-26T19:27:03.616Z,103482.94
2024-01-26T19:29:31.639Z,103483.84
2024-01-26T19:31:59.056Z,103481.22
2024-01-26T19:34:27.655Z,103482.09
2024-01-26T19:36:54.973Z,103482.97
2024-01-26T19:39:21.648Z,103493.47
2024-01-26T19:41:48.478Z,103493.47
2024-01-26T19:44:16.000Z,103497.88
2024-01-26T19:46:43.083Z,103497.00
2024-01-26T19:49:09.975Z,103498.75
2024-01-26T19:51:36.941Z,103489.13
2024-01-26T19:54:04.072Z,103480.34
2024-01-26T19:56:33.806Z,103495.25
2024-01-26T19:59:05.075Z,103484.72
2024-01-26T20:01:32.803Z,103496.13
2024-01-26T20:03:59.813Z,103486.50
2024-01-26T20:06:26.724Z,103496.13
2024-01-26T20:08:53.753Z,103491.75
2024-01-26T20:11:21.486Z,103499.63
2024-01-26T20:13:48.320Z,103494.38
2024-01-26T20:16:17.393Z,103494.38
2024-01-26T20:18:47.087Z,103505.75
2024-01-26T20:21:14.751Z,103505.75
2024-01-26T20:23:46.890Z,103507.47
2024-01-26T20:26:14.666Z,103510.97
2024-01-26T20:28:44.645Z,103506.59
2024-01-26T20:31:14.815Z,103512.72
2024-01-26T20:33:45.612Z,103503.97
2024-01-26T20:36:14.053Z,103520.63
2024-01-26T20:38:41.510Z,103509.25
2024-01-26T20:41:10.150Z,103518.91
2024-01-26T20:43:37.344Z,103515.41
2024-01-26T20:46:04.615Z,103511.91
2024-01-26T20:48:32.026Z,103513.69
2024-01-26T20:50:59.463Z,103518.94
2024-01-26T20:53:29.052Z,103518.06
2024-01-26T20:55:55.831Z,103523.31
2024-01-26T20:58:23.060Z,103527.69
2024-01-26T21:00:50.473Z,103524.19
2024-01-26T21:03:17.613Z,103537.34
2024-01-26T21:05:44.744Z,103535.59
2024-01-26T21:08:12.594Z,103531.22
2024-01-26T21:10:39.771Z,103524.19
2024-01-26T21:13:06.981Z,103525.06
2024-01-26T21:15:34.248Z,103526.84
2024-01-26T21:18:01.553Z,103527.72
2024-01-26T21:20:30.848Z,103535.59
2024-01-26T21:22:59.067Z,103538.22
2024-01-26T21:25:25.795Z,103540.00
2024-01-26T21:27:53.316Z,103544.38
2024-01-26T21:30:20.218Z,103545.25
2024-01-26T21:32:47.205Z,103540.88
2024-01-26T21:35:14.263Z,103539.13
2024-01-26T21:37:45.633Z,103539.13
2024-01-26T21:40:13.342Z,103539.13
2024-01-26T21:42:40.347Z,103540.00
2024-01-26T21:45:07.898Z,103544.38
2024-01-26T21:47:35.111Z,103551.38
2024-01-26T21:50:02.596Z,103558.31
2024-01-26T21:52:29.518Z,103555.69
2024-01-26T21:54:56.306Z,103560.06
2024-01-26T21:57:23.708Z,103557.44
2024-01-26T21:59:52.358Z,103553.06
2024-01-26T22:02:21.072Z,103560.06
2024-01-26T22:04:48.012Z,103557.44
2024-01-26T22:07:15.037Z,103551.28
2024-01-26T22:09:45.885Z,103553.03
2024-01-26T22:12:12.753Z,103557.44
2024-01-26T22:14:39.766Z,103547.78
2024-01-26T22:17:06.607Z,103557.44
2024-01-26T22:19:33.459Z,103562.69
2024-01-26T22:22:00.656Z,103567.94
2024-01-26T22:24:27.512Z,103581.09
2024-01-26T22:26:59.468Z,103578.47
2024-01-26T22:29:26.472Z,103577.59
2024-01-26T22:31:55.115Z,103574.94
2024-01-26T22:34:22.159Z,103575.81
2024-01-26T22:36:49.419Z,103585.44
2024-01-26T22:39:19.532Z,103587.16
2024-01-26T22:41:46.646Z,103586.28
2024-01-26T22:44:14.098Z,103588.03
2024-01-26T22:46:42.735Z,103582.78
2024-01-26T22:49:10.614Z,103588.84
2024-01-26T22:51:38.720Z,103604.63
2024-01-26T22:54:05.549Z,103606.34
2024-01-26T22:56:32.762Z,103597.59
2024-01-26T22:59:00.132Z,103597.56
2024-01-26T23:01:29.263Z,103608.06
2024-01-26T23:03:56.539Z,103609.81
2024-01-26T23:06:23.698Z,103614.19
2024-01-26T23:08:51.842Z,103620.25
2024-01-26T23:11:21.608Z,103618.50
2024-01-26T23:13:48.936Z,103617.63
2024-01-26T23:16:22.073Z,103608.88
2024-01-26T23:18:50.560Z,103622.91
2024-01-26T23:21:17.448Z,103617.63
2024-01-26T23:23:44.311Z,103624.63
2024-01-26T23:26:11.340Z,103619.38
2024-01-26T23:28:39.924Z,103634.16
2024-01-26T23:31:06.774Z,103633.28
2024-01-26T23:33:33.615Z,103643.75
2024-01-26T23:36:00.606Z,103661.25
2024-01-26T23:38:27.677Z,103638.50
2024-01-26T23:40:54.441Z,103642.88
2024-01-26T23:43:21.764Z,103640.25
2024-01-26T23:45:50.045Z,103638.50
2024-01-26T23:48:17.050Z,103632.41
2024-01-26T23:50:44.227Z,103641.16
2024-01-26T23:53:11.273Z,103640.28
2024-01-26T23:55:40.279Z,103647.28
2024-01-26T23:58:07.020Z,103647.22
